sensor_id;sensor_type;location;lat;lon;timestamp;P1;durP1;ratioP1;P2;durP2;ratioP2
74471;SDS011;62920;53.572;10.050;2023-05-07T00:01:02;12.07;;;6.85;;
74471;SDS011;62920;53.572;10.050;2023-05-07T00:03:27;10.93;;;6.47;;
74471;SDS011;62920;53.572;10.050;2023-05-07T00:05:53;11.73;;;6.28;;
74471;SDS011;62920;53.572;10.050;2023-05-07T00:08:19;11.80;;;6.53;;
74471;SDS011;62920;53.572;10.050;2023-05-07T00:10:45;11.15;;;6.13;;
74471;SDS011;62920;53.572;10.050;2023-05-07T00:13:11;12.13;;;6.47;;
74471;SDS011;62920;53.572;10.050;2023-05-07T00:15:36;10.43;;;4.93;;
74471;SDS011;62920;53.572;10.050;2023-05-07T00:18:03;13.38;;;6.80;;
74471;SDS011;62920;53.572;10.050;2023-05-07T00:20:29;12.20;;;6.60;;
74471;SDS011;62920;53.572;10.050;2023-05-07T00:22:54;10.98;;;6.35;;
74471;SDS011;62920;53.572;10.050;2023-05-07T00:25:19;13.05;;;6.05;;
74471;SDS011;62920;53.572;10.050;2023-05-07T00:27:45;9.73;;;5.78;;
74471;SDS011;62920;53.572;10.050;2023-05-07T00:30:10;11.60;;;6.53;;
74471;SDS011;62920;53.572;10.050;2023-05-07T00:32:36;14.30;;;7.18;;
74471;SDS011;62920;53.572;10.050;2023-05-07T00:35:02;10.73;;;6.10;;
74471;SDS011;62920;53.572;10.050;2023-05-07T00:37:28;12.50;;;6.45;;
74471;SDS011;62920;53.572;10.050;2023-05-07T00:39:55;12.70;;;7.03;;
74471;SDS011;62920;53.572;10.050;2023-05-07T00:42:20;11.05;;;6.38;;
74471;SDS011;62920;53.572;10.050;2023-05-07T00:44:46;14.18;;;7.30;;
74471;SDS011;62920;53.572;10.050;2023-05-07T00:47:11;11.85;;;6.55;;
74471;SDS011;62920;53.572;10.050;2023-05-07T00:49:46;8.35;;;4.50;;
74471;SDS011;62920;53.572;10.050;2023-05-07T00:52:13;12.57;;;5.47;;
74471;SDS011;62920;53.572;10.050;2023-05-07T00:54:40;13.23;;;7.00;;
74471;SDS011;62920;53.572;10.050;2023-05-07T00:57:06;10.90;;;5.90;;
74471;SDS011;62920;53.572;10.050;2023-05-07T00:59:32;11.93;;;6.10;;
74471;SDS011;62920;53.572;10.050;2023-05-07T01:01:57;13.73;;;6.90;;
74471;SDS011;62920;53.572;10.050;2023-05-07T01:04:23;11.88;;;5.90;;
74471;SDS011;62920;53.572;10.050;2023-05-07T01:06:49;12.07;;;5.82;;
74471;SDS011;62920;53.572;10.050;2023-05-07T01:09:15;11.07;;;5.88;;
74471;SDS011;62920;53.572;10.050;2023-05-07T01:11:40;12.00;;;6.50;;
74471;SDS011;62920;53.572;10.050;2023-05-07T01:14:07;11.48;;;7.18;;
74471;SDS011;62920;53.572;10.050;2023-05-07T01:16:33;10.43;;;6.07;;
74471;SDS011;62920;53.572;10.050;2023-05-07T01:18:59;10.95;;;6.10;;
74471;SDS011;62920;53.572;10.050;2023-05-07T01:21:26;9.48;;;5.47;;
74471;SDS011;62920;53.572;10.050;2023-05-07T01:23:51;10.35;;;6.05;;
74471;SDS011;62920;53.572;10.050;2023-05-07T01:26:17;11.90;;;6.30;;
74471;SDS011;62920;53.572;10.050;2023-05-07T01:28:44;7.85;;;4.72;;
74471;SDS011;62920;53.572;10.050;2023-05-07T01:31:10;8.15;;;4.43;;
74471;SDS011;62920;53.572;10.050;2023-05-07T01:33:37;9.50;;;5.32;;
74471;SDS011;62920;53.572;10.050;2023-05-07T01:36:03;11.18;;;5.32;;
74471;SDS011;62920;53.572;10.050;2023-05-07T01:38:32;10.73;;;5.07;;
74471;SDS011;62920;53.572;10.050;2023-05-07T01:40:58;11.00;;;5.78;;
74471;SDS011;62920;53.572;10.050;2023-05-07T01:43:23;8.77;;;4.72;;
74471;SDS011;62920;53.572;10.050;2023-05-07T01:45:49;10.35;;;5.93;;
74471;SDS011;62920;53.572;10.050;2023-05-07T01:48:14;11.50;;;5.80;;
74471;SDS011;62920;53.572;10.050;2023-05-07T01:50:40;10.57;;;5.72;;
74471;SDS011;62920;53.572;10.050;2023-05-07T01:53:06;9.48;;;5.90;;
74471;SDS011;62920;53.572;10.050;2023-05-07T01:55:32;8.25;;;4.78;;
74471;SDS011;62920;53.572;10.050;2023-05-07T01:57:57;9.57;;;6.07;;
74471;SDS011;62920;53.572;10.050;2023-05-07T02:00:22;9.75;;;5.95;;
74471;SDS011;62920;53.572;10.050;2023-05-07T02:02:48;9.35;;;5.18;;
74471;SDS011;62920;53.572;10.050;2023-05-07T02:05:13;7.00;;;4.18;;
74471;SDS011;62920;53.572;10.050;2023-05-07T02:07:39;10.88;;;5.78;;
74471;SDS011;62920;53.572;10.050;2023-05-07T02:10:04;8.80;;;5.13;;
74471;SDS011;62920;53.572;10.050;2023-05-07T02:12:31;9.88;;;4.95;;
74471;SDS011;62920;53.572;10.050;2023-05-07T02:14:56;7.60;;;4.00;;
74471;SDS011;62920;53.572;10.050;2023-05-07T02:17:21;10.95;;;5.40;;
74471;SDS011;62920;53.572;10.050;2023-05-07T02:19:47;10.32;;;5.13;;
74471;SDS011;62920;53.572;10.050;2023-05-07T02:22:12;11.25;;;6.00;;
74471;SDS011;62920;53.572;10.050;2023-05-07T02:24:37;9.68;;;5.13;;
74471;SDS011;62920;53.572;10.050;2023-05-07T02:27:03;8.50;;;4.13;;
74471;SDS011;62920;53.572;10.050;2023-05-07T02:29:29;8.43;;;4.07;;
74471;SDS011;62920;53.572;10.050;2023-05-07T02:31:54;8.32;;;4.40;;
74471;SDS011;62920;53.572;10.050;2023-05-07T02:34:20;12.23;;;5.43;;
74471;SDS011;62920;53.572;10.050;2023-05-07T02:36:46;8.75;;;4.78;;
74471;SDS011;62920;53.572;10.050;2023-05-07T02:39:12;9.43;;;4.90;;
74471;SDS011;62920;53.572;10.050;2023-05-07T02:41:38;8.10;;;4.20;;
74471;SDS011;62920;53.572;10.050;2023-05-07T02:44:03;11.32;;;5.43;;
74471;SDS011;62920;53.572;10.050;2023-05-07T02:46:29;9.30;;;5.03;;
74471;SDS011;62920;53.572;10.050;2023-05-07T02:48:54;8.15;;;4.85;;
74471;SDS011;62920;53.572;10.050;2023-05-07T02:51:20;9.48;;;5.45;;
74471;SDS011;62920;53.572;10.050;2023-05-07T02:53:47;9.75;;;5.07;;
74471;SDS011;62920;53.572;10.050;2023-05-07T02:56:12;9.85;;;4.90;;
74471;SDS011;62920;53.572;10.050;2023-05-07T02:58:37;9.35;;;5.53;;
74471;SDS011;62920;53.572;10.050;2023-05-07T03:01:07;9.73;;;5.03;;
74471;SDS011;62920;53.572;10.050;2023-05-07T03:03:32;10.73;;;5.40;;
74471;SDS011;62920;53.572;10.050;2023-05-07T03:05:58;8.23;;;4.97;;
74471;SDS011;62920;53.572;10.050;2023-05-07T03:08:24;11.88;;;5.60;;
74471;SDS011;62920;53.572;10.050;2023-05-07T03:10:49;10.82;;;5.72;;
74471;SDS011;62920;53.572;10.050;2023-05-07T03:13:15;11.43;;;6.10;;
74471;SDS011;62920;53.572;10.050;2023-05-07T03:15:40;11.35;;;5.55;;
74471;SDS011;62920;53.572;10.050;2023-05-07T03:18:05;10.27;;;5.43;;
74471;SDS011;62920;53.572;10.050;2023-05-07T03:20:31;9.70;;;5.30;;
74471;SDS011;62920;53.572;10.050;2023-05-07T03:22:56;10.85;;;5.85;;
74471;SDS011;62920;53.572;10.050;2023-05-07T03:25:22;9.25;;;4.65;;
74471;SDS011;62920;53.572;10.050;2023-05-07T03:27:47;10.38;;;5.82;;
74471;SDS011;62920;53.572;10.050;2023-05-07T03:30:12;9.00;;;4.97;;
74471;SDS011;62920;53.572;10.050;2023-05-07T03:32:38;9.93;;;5.60;;
74471;SDS011;62920;53.572;10.050;2023-05-07T03:35:03;11.02;;;6.13;;
74471;SDS011;62920;53.572;10.050;2023-05-07T03:37:29;12.27;;;6.85;;
74471;SDS011;62920;53.572;10.050;2023-05-07T03:39:55;10.90;;;5.80;;
74471;SDS011;62920;53.572;10.050;2023-05-07T03:42:20;7.50;;;4.40;;
74471;SDS011;62920;53.572;10.050;2023-05-07T03:44:45;10.40;;;6.05;;
74471;SDS011;62920;53.572;10.050;2023-05-07T03:47:11;11.65;;;5.90;;
74471;SDS011;62920;53.572;10.050;2023-05-07T03:49:38;8.48;;;4.78;;
74471;SDS011;62920;53.572;10.050;2023-05-07T03:52:03;9.82;;;5.28;;
74471;SDS011;62920;53.572;10.050;2023-05-07T03:54:30;10.43;;;5.25;;
74471;SDS011;62920;53.572;10.050;2023-05-07T03:56:55;8.75;;;4.50;;
74471;SDS011;62920;53.572;10.050;2023-05-07T03:59:21;10.43;;;5.93;;
74471;SDS011;62920;53.572;10.050;2023-05-07T04:01:46;10.82;;;5.82;;
74471;SDS011;62920;53.572;10.050;2023-05-07T04:04:12;10.52;;;5.63;;
74471;SDS011;62920;53.572;10.050;2023-05-07T04:06:37;8.45;;;5.05;;
74471;SDS011;62920;53.572;10.050;2023-05-07T04:09:03;11.05;;;5.18;;
74471;SDS011;62920;53.572;10.050;2023-05-07T04:11:28;9.63;;;5.10;;
74471;SDS011;62920;53.572;10.050;2023-05-07T04:13:53;9.30;;;5.38;;
74471;SDS011;62920;53.572;10.050;2023-05-07T04:16:19;11.27;;;5.90;;
74471;SDS011;62920;53.572;10.050;2023-05-07T04:18:44;11.38;;;6.30;;
74471;SDS011;62920;53.572;10.050;2023-05-07T04:21:14;10.20;;;5.78;;
74471;SDS011;62920;53.572;10.050;2023-05-07T04:23:48;9.52;;;4.40;;
74471;SDS011;62920;53.572;10.050;2023-05-07T04:26:14;12.05;;;5.82;;
74471;SDS011;62920;53.572;10.050;2023-05-07T04:28:40;10.02;;;5.20;;
74471;SDS011;62920;53.572;10.050;2023-05-07T04:31:05;8.98;;;5.22;;
74471;SDS011;62920;53.572;10.050;2023-05-07T04:33:31;9.15;;;4.13;;
74471;SDS011;62920;53.572;10.050;2023-05-07T04:35:57;10.43;;;5.68;;
74471;SDS011;62920;53.572;10.050;2023-05-07T04:38:23;7.85;;;4.35;;
74471;SDS011;62920;53.572;10.050;2023-05-07T04:40:48;9.13;;;4.95;;
74471;SDS011;62920;53.572;10.050;2023-05-07T04:43:14;8.25;;;4.40;;
74471;SDS011;62920;53.572;10.050;2023-05-07T04:45:39;9.63;;;4.95;;
74471;SDS011;62920;53.572;10.050;2023-05-07T04:48:06;8.63;;;4.10;;
74471;SDS011;62920;53.572;10.050;2023-05-07T04:50:32;7.75;;;4.32;;
74471;SDS011;62920;53.572;10.050;2023-05-07T04:52:57;11.50;;;5.47;;
74471;SDS011;62920;53.572;10.050;2023-05-07T04:55:23;10.77;;;4.97;;
74471;SDS011;62920;53.572;10.050;2023-05-07T04:57:48;8.15;;;4.60;;
74471;SDS011;62920;53.572;10.050;2023-05-07T05:00:14;12.00;;;4.78;;
74471;SDS011;62920;53.572;10.050;2023-05-07T05:02:40;9.50;;;5.05;;
74471;SDS011;62920;53.572;10.050;2023-05-07T05:05:06;7.22;;;4.00;;
74471;SDS011;62920;53.572;10.050;2023-05-07T05:07:32;9.90;;;5.05;;
74471;SDS011;62920;53.572;10.050;2023-05-07T05:09:57;12.27;;;5.68;;
74471;SDS011;62920;53.572;10.050;2023-05-07T05:12:23;10.13;;;4.90;;
74471;SDS011;62920;53.572;10.050;2023-05-07T05:14:48;8.63;;;5.03;;
74471;SDS011;62920;53.572;10.050;2023-05-07T05:17:14;9.35;;;5.18;;
74471;SDS011;62920;53.572;10.050;2023-05-07T05:19:39;11.60;;;5.97;;
74471;SDS011;62920;53.572;10.050;2023-05-07T05:22:04;10.40;;;4.53;;
74471;SDS011;62920;53.572;10.050;2023-05-07T05:24:30;7.43;;;4.07;;
74471;SDS011;62920;53.572;10.050;2023-05-07T05:26:56;8.65;;;5.13;;
74471;SDS011;62920;53.572;10.050;2023-05-07T05:29:21;8.90;;;4.70;;
74471;SDS011;62920;53.572;10.050;2023-05-07T05:31:47;10.02;;;5.38;;
74471;SDS011;62920;53.572;10.050;2023-05-07T05:34:13;11.63;;;5.53;;
74471;SDS011;62920;53.572;10.050;2023-05-07T05:36:38;9.48;;;5.22;;
74471;SDS011;62920;53.572;10.050;2023-05-07T05:39:03;8.93;;;5.10;;
74471;SDS011;62920;53.572;10.050;2023-05-07T05:41:29;12.73;;;6.38;;
74471;SDS011;62920;53.572;10.050;2023-05-07T05:43:54;8.70;;;4.13;;
74471;SDS011;62920;53.572;10.050;2023-05-07T05:46:20;12.25;;;5.78;;
74471;SDS011;62920;53.572;10.050;2023-05-07T05:48:46;9.50;;;5.53;;
74471;SDS011;62920;53.572;10.050;2023-05-07T05:51:11;9.43;;;5.45;;
74471;SDS011;62920;53.572;10.050;2023-05-07T05:53:37;10.82;;;5.20;;
74471;SDS011;62920;53.572;10.050;2023-05-07T05:56:02;9.20;;;5.15;;
74471;SDS011;62920;53.572;10.050;2023-05-07T05:58:28;10.48;;;5.95;;
74471;SDS011;62920;53.572;10.050;2023-05-07T06:00:53;11.23;;;5.47;;
74471;SDS011;62920;53.572;10.050;2023-05-07T06:03:19;10.77;;;5.30;;
74471;SDS011;62920;53.572;10.050;2023-05-07T06:05:44;9.65;;;5.30;;
74471;SDS011;62920;53.572;10.050;2023-05-07T06:08:09;9.85;;;5.15;;
74471;SDS011;62920;53.572;10.050;2023-05-07T06:10:35;10.57;;;5.65;;
74471;SDS011;62920;53.572;10.050;2023-05-07T06:13:01;8.45;;;5.20;;
74471;SDS011;62920;53.572;10.050;2023-05-07T06:15:27;9.02;;;4.80;;
74471;SDS011;62920;53.572;10.050;2023-05-07T06:17:52;8.73;;;4.85;;
74471;SDS011;62920;53.572;10.050;2023-05-07T06:20:18;10.00;;;5.18;;
74471;SDS011;62920;53.572;10.050;2023-05-07T06:22:43;10.52;;;5.10;;
74471;SDS011;62920;53.572;10.050;2023-05-07T06:25:09;10.15;;;5.80;;
74471;SDS011;62920;53.572;10.050;2023-05-07T06:27:34;8.10;;;4.22;;
74471;SDS011;62920;53.572;10.050;2023-05-07T06:29:59;7.90;;;4.10;;
74471;SDS011;62920;53.572;10.050;2023-05-07T06:32:25;7.60;;;4.70;;
74471;SDS011;62920;53.572;10.050;2023-05-07T06:34:51;9.80;;;5.95;;
74471;SDS011;62920;53.572;10.050;2023-05-07T06:37:16;8.90;;;5.20;;
74471;SDS011;62920;53.572;10.050;2023-05-07T06:39:41;9.73;;;5.20;;
74471;SDS011;62920;53.572;10.050;2023-05-07T06:42:07;7.65;;;3.97;;
74471;SDS011;62920;53.572;10.050;2023-05-07T06:44:32;7.80;;;4.68;;
74471;SDS011;62920;53.572;10.050;2023-05-07T06:46:57;7.00;;;3.83;;
74471;SDS011;62920;53.572;10.050;2023-05-07T06:49:23;8.18;;;5.28;;
74471;SDS011;62920;53.572;10.050;2023-05-07T06:51:48;9.32;;;5.03;;
74471;SDS011;62920;53.572;10.050;2023-05-07T06:54:13;7.95;;;4.30;;
74471;SDS011;62920;53.572;10.050;2023-05-07T06:56:39;7.85;;;4.22;;
74471;SDS011;62920;53.572;10.050;2023-05-07T06:59:05;9.32;;;5.03;;
74471;SDS011;62920;53.572;10.050;2023-05-07T07:01:31;9.95;;;4.82;;
74471;SDS011;62920;53.572;10.050;2023-05-07T07:03:56;9.65;;;4.18;;
74471;SDS011;62920;53.572;10.050;2023-05-07T07:06:22;9.73;;;4.88;;
74471;SDS011;62920;53.572;10.050;2023-05-07T07:08:47;8.00;;;4.57;;
74471;SDS011;62920;53.572;10.050;2023-05-07T07:11:12;7.65;;;4.07;;
74471;SDS011;62920;53.572;10.050;2023-05-07T07:13:38;7.95;;;4.35;;
74471;SDS011;62920;53.572;10.050;2023-05-07T07:18:30;9.02;;;4.30;;
74471;SDS011;62920;53.572;10.050;2023-05-07T07:20:55;6.93;;;3.72;;
74471;SDS011;62920;53.572;10.050;2023-05-07T07:23:21;7.70;;;4.30;;
74471;SDS011;62920;53.572;10.050;2023-05-07T07:25:46;8.60;;;4.80;;
74471;SDS011;62920;53.572;10.050;2023-05-07T07:28:11;7.18;;;3.95;;
74471;SDS011;62920;53.572;10.050;2023-05-07T07:30:37;7.07;;;3.80;;
74471;SDS011;62920;53.572;10.050;2023-05-07T07:33:03;8.88;;;4.35;;
74471;SDS011;62920;53.572;10.050;2023-05-07T07:35:29;5.15;;;2.88;;
74471;SDS011;62920;53.572;10.050;2023-05-07T07:37:54;6.43;;;3.83;;
74471;SDS011;62920;53.572;10.050;2023-05-07T07:40:20;9.63;;;4.80;;
74471;SDS011;62920;53.572;10.050;2023-05-07T07:42:45;8.73;;;4.57;;
74471;SDS011;62920;53.572;10.050;2023-05-07T07:45:11;6.88;;;3.88;;
74471;SDS011;62920;53.572;10.050;2023-05-07T07:47:37;7.40;;;4.30;;
74471;SDS011;62920;53.572;10.050;2023-05-07T07:50:02;6.78;;;4.13;;
74471;SDS011;62920;53.572;10.050;2023-05-07T07:52:28;7.45;;;4.07;;
74471;SDS011;62920;53.572;10.050;2023-05-07T07:54:53;6.70;;;3.97;;
74471;SDS011;62920;53.572;10.050;2023-05-07T07:57:19;7.00;;;4.05;;
74471;SDS011;62920;53.572;10.050;2023-05-07T07:59:44;6.45;;;2.67;;
74471;SDS011;62920;53.572;10.050;2023-05-07T08:02:09;5.80;;;3.35;;
74471;SDS011;62920;53.572;10.050;2023-05-07T08:04:35;6.82;;;3.97;;
74471;SDS011;62920;53.572;10.050;2023-05-07T08:09:27;7.65;;;4.07;;
74471;SDS011;62920;53.572;10.050;2023-05-07T08:11:52;8.43;;;4.85;;
74471;SDS011;62920;53.572;10.050;2023-05-07T08:14:18;6.95;;;4.25;;
74471;SDS011;62920;53.572;10.050;2023-05-07T08:16:43;12.77;;;5.10;;
74471;SDS011;62920;53.572;10.050;2023-05-07T08:19:09;8.48;;;3.78;;
74471;SDS011;62920;53.572;10.050;2023-05-07T08:21:38;6.75;;;3.97;;
74471;SDS011;62920;53.572;10.050;2023-05-07T08:24:04;7.65;;;4.00;;
74471;SDS011;62920;53.572;10.050;2023-05-07T08:26:29;6.85;;;3.67;;
74471;SDS011;62920;53.572;10.050;2023-05-07T08:28:55;9.38;;;4.60;;
74471;SDS011;62920;53.572;10.050;2023-05-07T08:31:20;12.23;;;4.85;;
74471;SDS011;62920;53.572;10.050;2023-05-07T08:33:46;7.78;;;4.32;;
74471;SDS011;62920;53.572;10.050;2023-05-07T08:36:11;10.43;;;3.47;;
74471;SDS011;62920;53.572;10.050;2023-05-07T08:38:37;6.93;;;4.13;;
74471;SDS011;62920;53.572;10.050;2023-05-07T08:41:03;9.75;;;4.00;;
74471;SDS011;62920;53.572;10.050;2023-05-07T08:43:28;8.02;;;4.70;;
74471;SDS011;62920;53.572;10.050;2023-05-07T08:45:54;10.07;;;4.60;;
74471;SDS011;62920;53.572;10.050;2023-05-07T08:48:21;9.77;;;4.60;;
74471;SDS011;62920;53.572;10.050;2023-05-07T08:50:48;8.32;;;4.80;;
74471;SDS011;62920;53.572;10.050;2023-05-07T08:53:13;9.85;;;4.18;;
74471;SDS011;62920;53.572;10.050;2023-05-07T08:55:41;9.25;;;4.35;;
74471;SDS011;62920;53.572;10.050;2023-05-07T08:58:06;9.48;;;4.10;;
74471;SDS011;62920;53.572;10.050;2023-05-07T09:00:31;4.18;;;2.47;;
74471;SDS011;62920;53.572;10.050;2023-05-07T09:02:57;7.10;;;3.90;;
74471;SDS011;62920;53.572;10.050;2023-05-07T09:05:22;8.60;;;4.18;;
74471;SDS011;62920;53.572;10.050;2023-05-07T09:07:48;5.85;;;3.17;;
74471;SDS011;62920;53.572;10.050;2023-05-07T09:10:14;7.43;;;4.20;;
74471;SDS011;62920;53.572;10.050;2023-05-07T09:12:39;7.72;;;4.30;;
74471;SDS011;62920;53.572;10.050;2023-05-07T09:15:05;7.57;;;4.30;;
74471;SDS011;62920;53.572;10.050;2023-05-07T09:17:31;9.90;;;4.15;;
74471;SDS011;62920;53.572;10.050;2023-05-07T09:19:56;6.63;;;3.95;;
74471;SDS011;62920;53.572;10.050;2023-05-07T09:22:29;7.35;;;3.92;;
74471;SDS011;62920;53.572;10.050;2023-05-07T09:24:56;7.50;;;4.03;;
74471;SDS011;62920;53.572;10.050;2023-05-07T09:27:22;6.93;;;3.92;;
74471;SDS011;62920;53.572;10.050;2023-05-07T09:29:47;7.63;;;4.15;;
74471;SDS011;62920;53.572;10.050;2023-05-07T09:32:13;6.43;;;3.53;;
74471;SDS011;62920;53.572;10.050;2023-05-07T09:34:39;6.75;;;4.13;;
74471;SDS011;62920;53.572;10.050;2023-05-07T09:37:06;6.80;;;3.75;;
74471;SDS011;62920;53.572;10.050;2023-05-07T09:39:38;5.90;;;3.40;;
74471;SDS011;62920;53.572;10.050;2023-05-07T09:42:07;7.30;;;3.97;;
74471;SDS011;62920;53.572;10.050;2023-05-07T09:44:34;6.75;;;3.45;;
74471;SDS011;62920;53.572;10.050;2023-05-07T09:47:00;7.40;;;4.00;;
74471;SDS011;62920;53.572;10.050;2023-05-07T09:49:25;7.22;;;3.70;;
74471;SDS011;62920;53.572;10.050;2023-05-07T09:51:57;7.85;;;3.97;;
74471;SDS011;62920;53.572;10.050;2023-05-07T09:54:25;7.40;;;3.53;;
74471;SDS011;62920;53.572;10.050;2023-05-07T09:56:51;6.28;;;3.15;;
74471;SDS011;62920;53.572;10.050;2023-05-07T10:01:43;6.85;;;3.75;;
74471;SDS011;62920;53.572;10.050;2023-05-07T10:04:09;8.45;;;4.07;;
74471;SDS011;62920;53.572;10.050;2023-05-07T10:06:35;8.93;;;4.18;;
74471;SDS011;62920;53.572;10.050;2023-05-07T10:09:01;6.57;;;3.80;;
74471;SDS011;62920;53.572;10.050;2023-05-07T10:11:27;6.72;;;3.78;;
74471;SDS011;62920;53.572;10.050;2023-05-07T10:13:53;8.80;;;3.83;;
74471;SDS011;62920;53.572;10.050;2023-05-07T10:16:18;7.47;;;4.00;;
74471;SDS011;62920;53.572;10.050;2023-05-07T10:18:44;7.68;;;4.18;;
74471;SDS011;62920;53.572;10.050;2023-05-07T10:21:17;7.85;;;4.43;;
74471;SDS011;62920;53.572;10.050;2023-05-07T10:23:44;6.65;;;3.88;;
74471;SDS011;62920;53.572;10.050;2023-05-07T10:26:11;7.07;;;4.00;;
74471;SDS011;62920;53.572;10.050;2023-05-07T10:28:38;5.60;;;3.15;;
74471;SDS011;62920;53.572;10.050;2023-05-07T10:33:41;5.95;;;3.25;;
74471;SDS011;62920;53.572;10.050;2023-05-07T10:36:06;9.05;;;4.30;;
74471;SDS011;62920;53.572;10.050;2023-05-07T10:38:32;4.88;;;3.13;;
74471;SDS011;62920;53.572;10.050;2023-05-07T10:40:58;5.88;;;3.30;;
74471;SDS011;62920;53.572;10.050;2023-05-07T10:43:24;7.65;;;3.95;;
74471;SDS011;62920;53.572;10.050;2023-05-07T10:46:35;7.57;;;3.70;;
74471;SDS011;62920;53.572;10.050;2023-05-07T10:48:49;6.70;;;3.22;;
74471;SDS011;62920;53.572;10.050;2023-05-07T10:51:36;8.10;;;3.75;;
74471;SDS011;62920;53.572;10.050;2023-05-07T10:56:37;6.53;;;3.35;;
74471;SDS011;62920;53.572;10.050;2023-05-07T11:02:04;5.30;;;3.05;;
74471;SDS011;62920;53.572;10.050;2023-05-07T11:04:32;7.65;;;3.15;;
74471;SDS011;62920;53.572;10.050;2023-05-07T11:17:34;7.68;;;2.85;;
74471;SDS011;62920;53.572;10.050;2023-05-07T11:20:16;5.38;;;2.90;;
74471;SDS011;62920;53.572;10.050;2023-05-07T11:22:42;5.55;;;2.97;;
74471;SDS011;62920;53.572;10.050;2023-05-07T11:25:08;4.60;;;2.55;;
74471;SDS011;62920;53.572;10.050;2023-05-07T11:27:33;6.35;;;2.72;;
74471;SDS011;62920;53.572;10.050;2023-05-07T11:29:59;5.40;;;3.38;;
74471;SDS011;62920;53.572;10.050;2023-05-07T11:32:29;5.85;;;3.22;;
74471;SDS011;62920;53.572;10.050;2023-05-07T11:34:56;4.57;;;2.90;;
74471;SDS011;62920;53.572;10.050;2023-05-07T11:37:23;5.90;;;3.60;;
74471;SDS011;62920;53.572;10.050;2023-05-07T11:42:33;5.05;;;2.60;;
74471;SDS011;62920;53.572;10.050;2023-05-07T11:44:59;4.35;;;2.47;;
74471;SDS011;62920;53.572;10.050;2023-05-07T11:47:25;6.07;;;2.90;;
74471;SDS011;62920;53.572;10.050;2023-05-07T11:49:51;7.13;;;2.58;;
74471;SDS011;62920;53.572;10.050;2023-05-07T11:52:18;4.72;;;2.42;;
74471;SDS011;62920;53.572;10.050;2023-05-07T11:54:54;5.38;;;2.45;;
74471;SDS011;62920;53.572;10.050;2023-05-07T11:57:21;5.57;;;2.75;;
74471;SDS011;62920;53.572;10.050;2023-05-07T11:59:47;4.10;;;2.25;;
74471;SDS011;62920;53.572;10.050;2023-05-07T12:02:13;4.25;;;2.55;;
74471;SDS011;62920;53.572;10.050;2023-05-07T12:04:40;3.67;;;1.50;;
74471;SDS011;62920;53.572;10.050;2023-05-07T12:07:05;3.97;;;1.98;;
74471;SDS011;62920;53.572;10.050;2023-05-07T12:09:32;4.45;;;2.50;;
74471;SDS011;62920;53.572;10.050;2023-05-07T12:12:02;5.97;;;2.60;;
74471;SDS011;62920;53.572;10.050;2023-05-07T12:14:28;4.10;;;2.33;;
74471;SDS011;62920;53.572;10.050;2023-05-07T12:16:54;6.93;;;2.20;;
74471;SDS011;62920;53.572;10.050;2023-05-07T12:19:19;6.55;;;2.42;;
74471;SDS011;62920;53.572;10.050;2023-05-07T12:21:45;4.53;;;2.10;;
74471;SDS011;62920;53.572;10.050;2023-05-07T12:24:11;4.07;;;2.42;;
74471;SDS011;62920;53.572;10.050;2023-05-07T12:26:39;4.18;;;2.40;;
74471;SDS011;62920;53.572;10.050;2023-05-07T12:29:07;3.85;;;1.92;;
74471;SDS011;62920;53.572;10.050;2023-05-07T12:31:33;4.63;;;2.33;;
74471;SDS011;62920;53.572;10.050;2023-05-07T12:33:58;3.97;;;1.90;;
74471;SDS011;62920;53.572;10.050;2023-05-07T12:36:23;6.47;;;2.55;;
74471;SDS011;62920;53.572;10.050;2023-05-07T12:38:49;4.15;;;1.67;;
74471;SDS011;62920;53.572;10.050;2023-05-07T12:41:15;3.78;;;2.10;;
74471;SDS011;62920;53.572;10.050;2023-05-07T12:43:43;3.88;;;2.00;;
74471;SDS011;62920;53.572;10.050;2023-05-07T12:46:09;3.80;;;2.13;;
74471;SDS011;62920;53.572;10.050;2023-05-07T12:48:38;4.90;;;2.20;;
74471;SDS011;62920;53.572;10.050;2023-05-07T12:51:08;3.47;;;1.80;;
74471;SDS011;62920;53.572;10.050;2023-05-07T12:53:39;4.47;;;2.38;;
74471;SDS011;62920;53.572;10.050;2023-05-07T12:56:05;4.05;;;2.17;;
74471;SDS011;62920;53.572;10.050;2023-05-07T12:58:32;5.10;;;1.70;;
74471;SDS011;62920;53.572;10.050;2023-05-07T13:00:59;3.58;;;1.98;;
74471;SDS011;62920;53.572;10.050;2023-05-07T13:03:26;3.70;;;1.95;;
74471;SDS011;62920;53.572;10.050;2023-05-07T13:05:57;4.22;;;2.20;;
74471;SDS011;62920;53.572;10.050;2023-05-07T13:08:31;4.55;;;2.00;;
74471;SDS011;62920;53.572;10.050;2023-05-07T13:10:57;3.50;;;1.92;;
74471;SDS011;62920;53.572;10.050;2023-05-07T13:13:24;4.28;;;2.05;;
74471;SDS011;62920;53.572;10.050;2023-05-07T13:15:50;4.38;;;2.20;;
74471;SDS011;62920;53.572;10.050;2023-05-07T13:18:15;3.78;;;1.80;;
74471;SDS011;62920;53.572;10.050;2023-05-07T13:20:41;4.65;;;2.10;;
74471;SDS011;62920;53.572;10.050;2023-05-07T13:23:06;4.10;;;2.30;;
74471;SDS011;62920;53.572;10.050;2023-05-07T13:25:32;6.82;;;2.33;;
74471;SDS011;62920;53.572;10.050;2023-05-07T13:27:57;3.83;;;1.98;;
74471;SDS011;62920;53.572;10.050;2023-05-07T13:30:23;3.67;;;2.20;;
74471;SDS011;62920;53.572;10.050;2023-05-07T13:32:48;3.28;;;1.55;;
74471;SDS011;62920;53.572;10.050;2023-05-07T13:35:15;3.50;;;2.00;;
74471;SDS011;62920;53.572;10.050;2023-05-07T13:40:06;3.23;;;1.83;;
74471;SDS011;62920;53.572;10.050;2023-05-07T13:42:32;4.68;;;1.52;;
74471;SDS011;62920;53.572;10.050;2023-05-07T13:44:57;4.03;;;1.98;;
74471;SDS011;62920;53.572;10.050;2023-05-07T13:47:23;3.65;;;1.73;;
74471;SDS011;62920;53.572;10.050;2023-05-07T13:49:48;4.13;;;2.10;;
74471;SDS011;62920;53.572;10.050;2023-05-07T13:52:17;7.20;;;2.10;;
74471;SDS011;62920;53.572;10.050;2023-05-07T13:54:42;3.78;;;1.92;;
74471;SDS011;62920;53.572;10.050;2023-05-07T13:57:08;3.95;;;1.90;;
74471;SDS011;62920;53.572;10.050;2023-05-07T13:59:33;4.05;;;1.90;;
74471;SDS011;62920;53.572;10.050;2023-05-07T14:01:59;3.70;;;1.95;;
74471;SDS011;62920;53.572;10.050;2023-05-07T14:04:24;2.80;;;1.48;;
74471;SDS011;62920;53.572;10.050;2023-05-07T14:06:50;3.90;;;1.73;;
74471;SDS011;62920;53.572;10.050;2023-05-07T14:09:15;4.32;;;1.80;;
74471;SDS011;62920;53.572;10.050;2023-05-07T14:11:41;4.43;;;1.70;;
74471;SDS011;62920;53.572;10.050;2023-05-07T14:14:06;3.63;;;1.77;;
74471;SDS011;62920;53.572;10.050;2023-05-07T14:16:31;3.10;;;1.63;;
74471;SDS011;62920;53.572;10.050;2023-05-07T14:18:57;4.95;;;1.88;;
74471;SDS011;62920;53.572;10.050;2023-05-07T14:21:22;3.42;;;1.70;;
74471;SDS011;62920;53.572;10.050;2023-05-07T14:23:47;4.30;;;1.92;;
74471;SDS011;62920;53.572;10.050;2023-05-07T14:26:13;4.03;;;1.55;;
74471;SDS011;62920;53.572;10.050;2023-05-07T14:28:39;3.88;;;1.77;;
74471;SDS011;62920;53.572;10.050;2023-05-07T14:31:04;3.45;;;1.67;;
74471;SDS011;62920;53.572;10.050;2023-05-07T14:35:56;3.17;;;1.67;;
74471;SDS011;62920;53.572;10.050;2023-05-07T14:38:21;3.17;;;1.70;;
74471;SDS011;62920;53.572;10.050;2023-05-07T14:40:47;5.00;;;1.63;;
74471;SDS011;62920;53.572;10.050;2023-05-07T14:43:12;3.30;;;1.45;;
74471;SDS011;62920;53.572;10.050;2023-05-07T14:45:38;3.08;;;1.50;;
74471;SDS011;62920;53.572;10.050;2023-05-07T14:48:03;5.00;;;1.67;;
74471;SDS011;62920;53.572;10.050;2023-05-07T14:50:29;5.28;;;2.10;;
74471;SDS011;62920;53.572;10.050;2023-05-07T14:52:54;3.95;;;1.80;;
74471;SDS011;62920;53.572;10.050;2023-05-07T14:55:20;3.10;;;1.42;;
74471;SDS011;62920;53.572;10.050;2023-05-07T14:57:45;4.00;;;1.70;;